createdAt,value
2022-08-23T00:02:29.390Z,19.25
2022-08-23T00:05:08.995Z,19.23
2022-08-23T00:07:40.971Z,19.27
2022-08-23T00:10:12.516Z,19.25
2022-08-23T00:12:42.681Z,19.25
2022-08-23T00:15:18.201Z,19.28
2022-08-23T00:17:48.916Z,19.22
2022-08-23T00:20:20.914Z,19.15
2022-08-23T00:22:49.429Z,19.07
2022-08-23T00:25:18.240Z,19.03
2022-08-23T00:27:47.457Z,19.03
2022-08-23T00:30:17.766Z,18.94
2022-08-23T00:32:48.246Z,18.86
2022-08-23T00:35:27.147Z,18.82
2022-08-23T00:38:31.671Z,18.86
2022-08-23T00:40:51.299Z,18.82
2022-08-23T00:43:44.373Z,18.80
2022-08-23T00:46:46.608Z,18.71
2022-08-23T00:49:19.018Z,18.65
2022-08-23T00:51:57.521Z,18.67
2022-08-23T00:54:29.961Z,18.67
2022-08-23T00:57:05.484Z,18.64
2022-08-23T00:59:34.633Z,18.66
2022-08-23T01:02:05.171Z,18.65
2022-08-23T01:04:42.817Z,18.59
2022-08-23T01:07:21.156Z,18.65
2022-08-23T01:09:53.148Z,18.43
2022-08-23T01:12:33.122Z,18.40
2022-08-23T01:15:08.573Z,18.32
2022-08-23T01:17:44.203Z,18.26
2022-08-23T01:20:19.614Z,18.30
2022-08-23T01:22:58.489Z,18.35
2022-08-23T01:25:32.488Z,18.33
2022-08-23T01:28:01.485Z,18.29
2022-08-23T01:30:34.420Z,18.26
2022-08-23T01:33:07.260Z,18.22
2022-08-23T01:35:41.768Z,18.17
2022-08-23T01:38:13.269Z,18.13
2022-08-23T01:40:44.914Z,18.07
2022-08-23T01:43:15.357Z,17.94
2022-08-23T01:45:44.737Z,17.96
2022-08-23T01:48:15.051Z,18.00
2022-08-23T01:50:44.003Z,18.08
2022-08-23T01:53:13.210Z,18.04
2022-08-23T01:55:45.511Z,17.96
2022-08-23T01:58:15.092Z,17.96
2022-08-23T02:00:45.594Z,17.82
2022-08-23T02:03:14.238Z,17.85
2022-08-23T02:05:44.190Z,17.88
2022-08-23T02:08:30.612Z,17.96
2022-08-23T02:11:01.433Z,17.94
2022-08-23T02:13:29.986Z,17.81
2022-08-23T02:15:59.970Z,17.63
2022-08-23T02:18:28.551Z,17.66
2022-08-23T02:20:57.955Z,17.62
2022-08-23T02:23:27.779Z,17.64
2022-08-23T02:25:57.256Z,17.66
2022-08-23T02:28:27.655Z,17.66
2022-08-23T02:30:56.143Z,17.57
2022-08-23T02:33:25.273Z,17.42
2022-08-23T02:35:53.851Z,17.32
2022-08-23T02:38:22.377Z,17.35
2022-08-23T02:40:52.766Z,17.32
2022-08-23T02:43:30.822Z,17.35
2022-08-23T02:45:59.947Z,17.36
2022-08-23T02:48:32.472Z,17.38
2022-08-23T02:51:07.953Z,17.32
2022-08-23T02:53:37.143Z,17.26
2022-08-23T02:56:21.607Z,17.27
2022-08-23T02:58:54.589Z,17.32
2022-08-23T03:01:29.960Z,17.36
2022-08-23T03:04:00.201Z,17.33
2022-08-23T03:06:30.107Z,17.31
2022-08-23T03:08:59.603Z,17.28
2022-08-23T03:11:30.878Z,17.27
2022-08-23T03:14:01.888Z,17.27
2022-08-23T03:16:31.040Z,17.27
2022-08-23T03:19:02.241Z,17.21
2022-08-23T03:21:31.299Z,17.21
2022-08-23T03:24:01.238Z,17.15
2022-08-23T03:26:30.095Z,17.16
2022-08-23T03:29:01.387Z,17.14
2022-08-23T03:31:31.000Z,17.08
2022-08-23T03:34:00.370Z,17.09
2022-08-23T03:36:29.225Z,17.09
2022-08-23T03:39:00.695Z,17.03
2022-08-23T03:41:29.349Z,17.04
2022-08-23T03:43:58.112Z,17.02
2022-08-23T03:46:33.901Z,17.02
2022-08-23T03:49:05.264Z,17.00
2022-08-23T03:51:35.622Z,16.99
2022-08-23T03:54:04.458Z,16.98
2022-08-23T03:56:38.094Z,16.92
2022-08-23T03:59:12.234Z,16.92
2022-08-23T04:01:42.566Z,16.90
2022-08-23T04:04:11.894Z,16.85
2022-08-23T04:06:41.157Z,16.85
2022-08-23T04:09:09.677Z,16.84
2022-08-23T04:11:39.762Z,16.88
2022-08-23T04:14:09.244Z,16.84
2022-08-23T04:16:39.082Z,16.82
2022-08-23T04:19:13.935Z,16.80
2022-08-23T04:21:49.283Z,16.80
2022-08-23T04:24:19.148Z,16.79
2022-08-23T04:26:49.631Z,16.76
2022-08-23T04:29:33.479Z,16.70
2022-08-23T04:32:05.541Z,16.72
2022-08-23T04:34:40.039Z,16.68
2022-08-23T04:37:09.633Z,16.54
2022-08-23T04:39:52.823Z,16.48
2022-08-23T04:42:23.444Z,16.47
2022-08-23T04:44:52.576Z,16.41
2022-08-23T04:47:21.539Z,16.36
2022-08-23T04:49:51.417Z,16.36
2022-08-23T04:52:20.146Z,16.32
2022-08-23T04:54:49.726Z,16.33
2022-08-23T04:57:18.260Z,16.21
2022-08-23T04:59:47.304Z,16.13
2022-08-23T05:02:15.853Z,16.04
2022-08-23T05:04:44.631Z,16.09
2022-08-23T05:07:15.652Z,16.04
2022-08-23T05:09:44.168Z,16.10
2022-08-23T05:12:12.819Z,16.09
2022-08-23T05:14:41.441Z,16.12
2022-08-23T05:17:16.446Z,16.04
2022-08-23T05:19:47.245Z,16.06
2022-08-23T05:22:17.286Z,16.09
2022-08-23T05:24:45.866Z,16.13
2022-08-23T05:27:15.699Z,16.18
2022-08-23T05:29:44.247Z,16.21
2022-08-23T05:32:13.265Z,16.30
2022-08-23T05:34:42.793Z,16.33
2022-08-23T05:37:11.909Z,16.38
2022-08-23T05:39:43.061Z,16.43
2022-08-23T05:42:17.053Z,16.49
2022-08-23T05:44:46.553Z,16.52
2022-08-23T05:47:17.543Z,16.57
2022-08-23T05:49:53.234Z,16.60
2022-08-23T05:52:22.036Z,16.64
2022-08-23T05:54:51.952Z,16.66
2022-08-23T05:57:20.561Z,16.62
2022-08-23T05:59:49.343Z,16.57
2022-08-23T06:02:17.910Z,16.54
2022-08-23T06:04:46.495Z,16.58
2022-08-23T06:07:16.757Z,16.64
2022-08-23T06:09:45.325Z,16.67
2022-08-23T06:12:16.171Z,16.72
2022-08-23T06:14:45.277Z,16.74
2022-08-23T06:17:14.336Z,16.77
2022-08-23T06:19:42.917Z,16.83
2022-08-23T06:22:11.674Z,16.86
2022-08-23T06:24:40.227Z,16.87
2022-08-23T06:27:08.762Z,16.91
2022-08-23T06:29:39.944Z,16.96
2022-08-23T06:32:08.725Z,17.02
2022-08-23T06:34:39.294Z,17.10
2022-08-23T06:37:13.745Z,17.18
2022-08-23T06:39:43.659Z,17.23
2022-08-23T06:42:37.920Z,17.32
2022-08-23T06:45:07.458Z,17.39
2022-08-23T06:47:35.974Z,17.43
2022-08-23T06:50:05.983Z,17.48
2022-08-23T06:52:34.546Z,17.52
2022-08-23T06:55:04.192Z,17.58
2022-08-23T06:57:33.471Z,17.64
2022-08-23T07:00:01.992Z,17.70
2022-08-23T07:02:32.513Z,17.76
2022-08-23T07:05:01.161Z,17.83
2022-08-23T07:07:41.147Z,17.88
2022-08-23T07:10:13.643Z,17.96
2022-08-23T07:12:43.278Z,18.02
2022-08-23T07:15:13.658Z,18.09
2022-08-23T07:17:43.988Z,18.16
2022-08-23T07:20:12.653Z,18.23
2022-08-23T07:22:42.295Z,18.30
2022-08-23T07:25:11.510Z,18.38
2022-08-23T07:27:40.238Z,18.45
2022-08-23T07:30:11.001Z,18.51
2022-08-23T07:32:41.230Z,18.56
2022-08-23T07:35:11.923Z,18.67
2022-08-23T07:37:41.170Z,18.73
2022-08-23T07:40:20.747Z,18.81
2022-08-23T07:42:49.704Z,18.87
2022-08-23T07:45:19.096Z,18.94
2022-08-23T07:47:51.782Z,19.01
2022-08-23T07:50:23.260Z,19.07
2022-08-23T07:52:51.909Z,19.14
2022-08-23T07:55:22.469Z,19.20
2022-08-23T07:57:51.744Z,19.27
2022-08-23T08:00:20.596Z,19.34
2022-08-23T08:02:49.763Z,19.41
2022-08-23T08:05:21.855Z,19.48
2022-08-23T08:07:51.153Z,19.55
2022-08-23T08:10:20.885Z,19.63
2022-08-23T08:12:50.054Z,19.71
2022-08-23T08:15:18.783Z,19.79
2022-08-23T08:17:49.235Z,19.86
2022-08-23T08:20:18.364Z,19.94
2022-08-23T08:22:56.421Z,20.02
2022-08-23T08:25:29.925Z,20.09
2022-08-23T08:28:00.786Z,20.16
2022-08-23T08:30:30.503Z,20.25
2022-08-23T08:32:59.277Z,20.35
2022-08-23T08:35:28.444Z,20.46
2022-08-23T08:37:58.521Z,20.52
2022-08-23T08:40:40.098Z,20.62
2022-08-23T08:43:31.729Z,20.73
2022-08-23T08:46:10.211Z,20.83
2022-08-23T08:48:47.270Z,20.95
2022-08-23T08:51:39.095Z,21.05
2022-08-23T08:54:16.973Z,21.16
2022-08-23T08:56:54.025Z,21.27
2022-08-23T08:59:28.904Z,21.36
2022-08-23T09:01:59.615Z,21.46
2022-08-23T09:04:28.362Z,21.57
2022-08-23T09:07:09.931Z,21.66
2022-08-23T09:10:18.123Z,21.75
2022-08-23T09:13:03.662Z,21.85
2022-08-23T09:15:42.783Z,21.95
2022-08-23T09:18:15.787Z,22.02
2022-08-23T09:20:49.069Z,22.09
2022-08-23T09:23:24.491Z,22.18
2022-08-23T09:26:03.538Z,22.26
2022-08-23T09:28:37.683Z,22.36
2022-08-23T09:31:08.331Z,22.45
2022-08-23T09:33:45.970Z,22.56
2022-08-23T09:36:23.634Z,22.71
2022-08-23T09:38:55.048Z,22.80
2022-08-23T09:41:29.424Z,22.91
2022-08-23T09:44:02.017Z,23.00
2022-08-23T09:46:39.056Z,23.08
2022-08-23T09:49:30.039Z,23.16
2022-08-23T09:52:03.427Z,23.24
2022-08-23T09:54:36.314Z,23.31
2022-08-23T09:57:10.821Z,23.40
2022-08-23T09:59:44.797Z,23.48
2022-08-23T10:02:27.145Z,23.57
2022-08-23T10:05:06.643Z,23.63
2022-08-23T10:07:42.615Z,23.71
2022-08-23T10:10:32.321Z,23.87
2022-08-23T10:13:04.678Z,24.07
2022-08-23T10:15:55.176Z,24.19
2022-08-23T10:18:47.699Z,24.27
2022-08-23T10:21:24.528Z,24.33
2022-08-23T10:24:15.950Z,24.41
2022-08-23T10:27:03.791Z,24.45
2022-08-23T10:29:41.196Z,24.49
2022-08-23T10:32:27.406Z,24.51
2022-08-23T10:35:19.531Z,24.54
2022-08-23T10:38:05.041Z,24.58
2022-08-23T10:40:44.004Z,24.62
2022-08-23T10:43:26.766Z,24.67
2022-08-23T10:46:01.847Z,24.72
2022-08-23T10:48:37.556Z,24.79
2022-08-23T10:51:31.262Z,24.87
2022-08-23T10:54:07.613Z,24.94
2022-08-23T10:56:42.957Z,25.10
2022-08-23T10:59:24.505Z,25.20
2022-08-23T11:02:20.246Z,25.27
2022-08-23T11:05:02.724Z,25.38
2022-08-23T11:07:35.396Z,25.45
2022-08-23T11:10:17.262Z,25.55
2022-08-23T11:12:59.312Z,25.64
2022-08-23T11:15:44.505Z,25.71
2022-08-23T11:18:43.001Z,25.79
2022-08-23T11:21:49.025Z,25.94
2022-08-23T11:24:55.217Z,26.06
2022-08-23T11:27:37.609Z,26.09
2022-08-23T11:30:46.685Z,26.12
2022-08-23T11:33:26.696Z,26.10
2022-08-23T11:36:18.059Z,26.14
2022-08-23T11:39:12.948Z,26.25
2022-08-23T11:42:07.115Z,26.36
2022-08-23T11:44:48.427Z,26.46
2022-08-23T11:47:27.334Z,26.53
2022-08-23T11:50:28.878Z,26.64
2022-08-23T11:53:26.604Z,26.71
2022-08-23T11:56:23.869Z,26.79
2022-08-23T11:59:24.963Z,26.86
2022-08-23T12:01:54.570Z,26.89
2022-08-23T12:04:43.405Z,26.94
2022-08-23T12:07:13.940Z,26.96
2022-08-23T12:09:57.631Z,27.03
2022-08-23T12:12:36.167Z,27.06
2022-08-23T12:15:12.100Z,27.12
2022-08-23T12:18:13.625Z,27.15
2022-08-23T12:20:45.796Z,27.19
2022-08-23T12:23:22.997Z,27.20
2022-08-23T12:26:22.788Z,27.23
2022-08-23T12:29:03.890Z,27.25
2022-08-23T12:31:45.408Z,27.30
2022-08-23T12:34:26.547Z,27.35
2022-08-23T12:37:11.790Z,27.39
2022-08-23T12:39:55.126Z,27.45
2022-08-23T12:42:31.078Z,27.57
2022-08-23T12:45:14.505Z,27.64
2022-08-23T12:47:45.453Z,27.67
2022-08-23T12:50:32.593Z,27.73
2022-08-23T12:53:07.277Z,27.78
2022-08-23T12:55:41.647Z,27.83
2022-08-23T12:58:12.412Z,27.87
2022-08-23T13:00:51.543Z,27.88
2022-08-23T13:03:27.958Z,27.91
2022-08-23T13:06:02.023Z,27.97
2022-08-23T13:08:39.745Z,28.00
2022-08-23T13:11:13.016Z,28.02
2022-08-23T13:13:45.176Z,28.09
2022-08-23T13:16:43.126Z,28.11
2022-08-23T13:19:22.383Z,28.22
2022-08-23T13:22:14.984Z,28.26
2022-08-23T13:24:47.655Z,28.32
2022-08-23T13:27:24.276Z,28.33
2022-08-23T13:29:57.438Z,28.29
2022-08-23T13:32:46.915Z,28.33
2022-08-23T13:35:39.078Z,28.37
2022-08-23T13:38:21.711Z,28.44
2022-08-23T13:41:02.090Z,28.46
2022-08-23T13:43:40.852Z,28.50
2022-08-23T13:46:18.121Z,28.55
2022-08-23T13:48:58.760Z,28.64
2022-08-23T13:51:31.947Z,28.66
2022-08-23T13:54:05.056Z,28.67
2022-08-23T13:56:41.712Z,28.69
2022-08-23T13:59:31.953Z,28.75
2022-08-23T14:02:02.608Z,28.70
2022-08-23T14:04:31.398Z,28.75
2022-08-23T14:07:00.080Z,28.80
2022-08-23T14:09:28.716Z,28.80
2022-08-23T14:12:03.891Z,28.86
2022-08-23T14:14:37.217Z,28.91
2022-08-23T14:17:12.787Z,28.98
2022-08-23T14:22:31.935Z,29.04
2022-08-23T14:25:01.190Z,29.08
2022-08-23T14:27:30.000Z,29.13
2022-08-23T14:30:00.076Z,29.17
2022-08-23T14:32:28.744Z,29.18
2022-08-23T14:34:57.396Z,29.15
2022-08-23T14:40:15.408Z,29.26
2022-08-23T14:42:45.672Z,29.26
2022-08-23T14:45:17.944Z,29.26
2022-08-23T14:47:46.947Z,29.29
2022-08-23T14:50:16.268Z,29.35
2022-08-23T14:52:48.253Z,29.39
2022-08-23T14:55:19.429Z,29.51
2022-08-23T14:57:51.681Z,29.59
2022-08-23T15:00:21.941Z,29.64
2022-08-23T15:02:51.278Z,29.65
2022-08-23T15:05:20.029Z,29.63
2022-08-23T15:07:48.597Z,29.53
2022-08-23T15:13:22.097Z,29.70
2022-08-23T15:15:56.235Z,29.73
2022-08-23T15:18:24.851Z,29.83
2022-08-23T15:20:53.417Z,29.93
2022-08-23T15:23:22.272Z,30.08
2022-08-23T15:25:52.217Z,30.17
2022-08-23T15:28:24.872Z,30.28
2022-08-23T15:30:55.403Z,30.33
2022-08-23T15:33:30.720Z,30.39
2022-08-23T15:36:01.847Z,30.48
2022-08-23T15:38:33.178Z,30.48
2022-08-23T15:41:02.478Z,30.54
2022-08-23T15:43:35.390Z,30.51
2022-08-23T15:46:14.245Z,30.51
2022-08-23T15:48:48.715Z,30.51
2022-08-23T15:51:19.599Z,30.52
2022-08-23T15:53:48.664Z,30.48
2022-08-23T15:56:23.666Z,30.51
2022-08-23T15:58:56.077Z,30.48
2022-08-23T16:01:28.874Z,30.44
2022-08-23T16:03:58.643Z,30.38
2022-08-23T16:06:29.310Z,30.39
2022-08-23T16:08:59.895Z,30.36
2022-08-23T16:11:28.515Z,30.32
2022-08-23T16:13:57.562Z,30.30
2022-08-23T16:16:32.180Z,30.26
2022-08-23T16:19:01.775Z,30.14
2022-08-23T16:21:32.257Z,30.09
2022-08-23T16:24:01.472Z,29.99
2022-08-23T16:26:35.670Z,30.01
2022-08-23T16:29:07.529Z,29.98
2022-08-23T16:31:39.931Z,29.86
2022-08-23T16:34:13.612Z,29.81
2022-08-23T16:36:45.572Z,29.83
2022-08-23T16:39:16.925Z,29.88
2022-08-23T16:41:45.634Z,29.90
2022-08-23T16:44:14.365Z,29.88
2022-08-23T16:46:44.935Z,29.87
2022-08-23T16:49:16.375Z,29.88
2022-08-23T16:51:45.720Z,29.84
2022-08-23T16:54:14.593Z,29.79
2022-08-23T16:56:43.897Z,29.73
2022-08-23T16:59:15.134Z,29.70
2022-08-23T17:01:52.227Z,29.67
2022-08-23T17:04:25.415Z,29.64
2022-08-23T17:07:00.144Z,29.60
2022-08-23T17:09:30.279Z,29.53
2022-08-23T17:12:00.140Z,29.50
2022-08-23T17:14:28.980Z,29.44
2022-08-23T17:17:00.942Z,29.36
2022-08-23T17:19:29.629Z,29.32
2022-08-23T17:21:58.688Z,29.28
2022-08-23T17:24:27.245Z,29.19
2022-08-23T17:26:56.842Z,29.14
2022-08-23T17:29:25.757Z,29.08
2022-08-23T17:31:54.428Z,28.95
2022-08-23T17:34:24.441Z,28.87
2022-08-23T17:36:56.448Z,28.78
2022-08-23T17:39:29.686Z,28.71
2022-08-23T17:41:59.795Z,28.62
2022-08-23T17:44:28.461Z,28.53
2022-08-23T17:46:57.317Z,28.47
2022-08-23T17:49:27.361Z,28.40
2022-08-23T17:51:56.070Z,28.33
2022-08-23T17:54:24.647Z,28.27
2022-08-23T17:56:53.660Z,28.20
2022-08-23T17:59:23.182Z,28.14
2022-08-23T18:01:52.099Z,28.10
2022-08-23T18:04:21.375Z,27.99
2022-08-23T18:06:51.494Z,27.95
2022-08-23T18:09:20.802Z,27.88
2022-08-23T18:11:49.318Z,27.86
2022-08-23T18:14:17.930Z,27.80
2022-08-23T18:16:47.047Z,27.65
2022-08-23T18:19:15.731Z,27.54
2022-08-23T18:21:45.488Z,27.49
2022-08-23T18:24:15.995Z,27.39
2022-08-23T18:27:02.595Z,27.26
2022-08-23T18:29:34.311Z,27.05
2022-08-23T18:32:04.346Z,26.95
2022-08-23T18:34:33.642Z,26.88
2022-08-23T18:37:02.790Z,26.80
2022-08-23T18:39:32.896Z,26.77
2022-08-23T18:42:04.314Z,26.70
2022-08-23T18:44:33.702Z,26.64
2022-08-23T18:47:04.853Z,26.64
2022-08-23T18:49:34.503Z,26.60
2022-08-23T18:52:07.000Z,26.55
2022-08-23T18:54:38.552Z,26.42
2022-08-23T18:57:07.556Z,26.38
2022-08-23T18:59:44.729Z,26.29
2022-08-23T19:02:13.525Z,26.16
2022-08-23T19:04:42.173Z,26.10
2022-08-23T19:07:11.865Z,25.98
2022-08-23T19:09:41.852Z,25.91
2022-08-23T19:12:10.849Z,25.86
2022-08-23T19:14:39.453Z,25.77
2022-08-23T19:17:09.398Z,25.71
2022-08-23T19:19:38.276Z,25.59
2022-08-23T19:22:07.080Z,25.41
2022-08-23T19:24:35.651Z,25.35
2022-08-23T19:27:06.396Z,25.33
2022-08-23T19:29:35.238Z,25.26
2022-08-23T19:32:04.811Z,25.13
2022-08-23T19:34:33.547Z,24.95
2022-08-23T19:37:02.177Z,24.92
2022-08-23T19:39:31.455Z,24.89
2022-08-23T19:42:00.103Z,24.89
2022-08-23T19:44:32.733Z,24.84
2022-08-23T19:47:01.565Z,24.83
2022-08-23T19:49:31.182Z,24.80
2022-08-23T19:52:00.295Z,24.71
2022-08-23T19:54:29.070Z,24.68
2022-08-23T19:57:03.025Z,24.65
2022-08-23T19:59:36.607Z,24.59
2022-08-23T20:02:05.578Z,24.39
2022-08-23T20:04:35.370Z,24.36
2022-08-23T20:07:05.686Z,24.32
2022-08-23T20:09:36.299Z,24.23
2022-08-23T20:12:05.815Z,24.24
2022-08-23T20:14:35.765Z,24.23
2022-08-23T20:17:07.509Z,24.16
2022-08-23T20:19:36.349Z,24.00
2022-08-23T20:22:23.710Z,23.90
2022-08-23T20:24:53.065Z,23.92
2022-08-23T20:27:24.169Z,23.92
2022-08-23T20:30:01.623Z,23.91
2022-08-23T20:32:31.440Z,23.85
2022-08-23T20:35:01.245Z,23.80
2022-08-23T20:37:30.938Z,23.72
2022-08-23T20:39:59.692Z,23.59
2022-08-23T20:42:28.477Z,23.45
2022-08-23T20:44:57.314Z,23.48
2022-08-23T20:47:27.221Z,23.43
2022-08-23T20:49:55.866Z,23.38
2022-08-23T20:52:24.758Z,23.36
2022-08-23T20:54:53.548Z,23.21
2022-08-23T20:57:22.799Z,23.16
2022-08-23T20:59:52.122Z,23.16
2022-08-23T21:02:20.779Z,23.11
2022-08-23T21:04:52.104Z,23.12
2022-08-23T21:07:21.469Z,23.07
2022-08-23T21:09:51.742Z,22.94
2022-08-23T21:12:20.339Z,22.85
2022-08-23T21:14:49.613Z,22.87
2022-08-23T21:17:18.094Z,22.89
2022-08-23T21:19:47.163Z,22.85
2022-08-23T21:22:18.717Z,22.82
2022-08-23T21:24:47.961Z,22.80
2022-08-23T21:27:20.297Z,22.74
2022-08-23T21:29:48.877Z,22.63
2022-08-23T21:32:17.422Z,22.56
2022-08-23T21:34:45.931Z,22.44
2022-08-23T21:37:14.527Z,22.42
2022-08-23T21:39:44.458Z,22.36
2022-08-23T21:42:15.656Z,22.35
2022-08-23T21:44:45.077Z,22.23
2022-08-23T21:47:15.406Z,22.11
2022-08-23T21:49:44.469Z,22.04
2022-08-23T21:52:12.962Z,22.10
2022-08-23T21:54:43.877Z,22.12
2022-08-23T21:57:13.225Z,22.11
2022-08-23T21:59:41.894Z,22.11
2022-08-23T22:02:10.910Z,22.06
2022-08-23T22:04:39.823Z,21.95
2022-08-23T22:07:08.926Z,21.83
2022-08-23T22:09:37.449Z,21.76
2022-08-23T22:12:09.193Z,21.65
2022-08-23T22:14:37.844Z,21.61
2022-08-23T22:17:06.962Z,21.67
2022-08-23T22:19:35.531Z,21.57
2022-08-23T22:22:05.449Z,21.55
2022-08-23T22:24:33.939Z,21.57
2022-08-23T22:27:03.014Z,21.54
2022-08-23T22:29:33.528Z,21.50
2022-08-23T22:32:02.806Z,21.42
2022-08-23T22:34:31.412Z,21.35
2022-08-23T22:36:59.913Z,21.26
2022-08-23T22:39:29.009Z,21.16
2022-08-23T22:41:57.600Z,21.13
2022-08-23T22:44:28.758Z,21.14
2022-08-23T22:46:58.801Z,21.09
2022-08-23T22:49:27.976Z,21.06
2022-08-23T22:51:59.522Z,21.02
2022-08-23T22:54:27.992Z,21.01
2022-08-23T22:57:24.889Z,20.96
2022-08-23T22:59:53.845Z,20.91
2022-08-23T23:02:25.109Z,20.96
2022-08-23T23:04:57.284Z,20.98
2022-08-23T23:07:40.149Z,20.93
2022-08-23T23:10:10.926Z,20.92
2022-08-23T23:12:40.158Z,20.84
2022-08-23T23:15:10.571Z,20.78
2022-08-23T23:17:41.603Z,20.80
2022-08-23T23:20:28.827Z,20.79
2022-08-23T23:22:57.697Z,20.67
2022-08-23T23:25:26.788Z,20.65
2022-08-23T23:27:55.260Z,20.65
2022-08-23T23:30:28.445Z,20.56
2022-08-23T23:32:59.250Z,20.56
2022-08-23T23:35:29.113Z,20.57
2022-08-23T23:37:59.158Z,20.53
2022-08-23T23:40:28.393Z,20.45
2022-08-23T23:42:57.771Z,20.40
2022-08-23T23:45:26.244Z,20.27
2022-08-23T23:47:55.721Z,20.26
2022-08-23T23:50:26.988Z,20.22
2022-08-23T23:52:55.945Z,20.14
2022-08-23T23:55:25.018Z,20.08
2022-08-23T23:57:54.102Z,20.07
